sensor_id;sensor_type;location;lat;lon;timestamp;pressure;altitude;pressure_sealevel;temperature;humidity
38912;BME280;28444;48.056;14.408;2022-12-16T00:00:04;96044.03;;;-0.85;100.00
38912;BME280;28444;48.056;14.408;2022-12-16T00:02:31;96036.50;;;-0.87;100.00
38912;BME280;28444;48.056;14.408;2022-12-16T00:04:58;96028.44;;;-0.87;100.00
38912;BME280;28444;48.056;14.408;2022-12-16T00:07:25;96020.97;;;-0.81;100.00
38912;BME280;28444;48.056;14.408;2022-12-16T00:09:51;96016.25;;;-0.88;100.00
38912;BME280;28444;48.056;14.408;2022-12-16T00:12:18;96026.28;;;-0.88;100.00
38912;BME280;28444;48.056;14.408;2022-12-16T00:14:45;96016.16;;;-0.82;100.00
38912;BME280;28444;48.056;14.408;2022-12-16T00:17:11;96019.28;;;-0.70;100.00
38912;BME280;28444;48.056;14.408;2022-12-16T00:19:38;96027.88;;;-0.72;100.00
38912;BME280;28444;48.056;14.408;2022-12-16T00:22:05;96026.16;;;-0.62;100.00
38912;BME280;28444;48.056;14.408;2022-12-16T00:24:31;96027.50;;;-0.76;100.00
38912;BME280;28444;48.056;14.408;2022-12-16T00:26:58;96041.03;;;-0.82;100.00
38912;BME280;28444;48.056;14.408;2022-12-16T00:29:25;96023.16;;;-0.79;100.00
38912;BME280;28444;48.056;14.408;2022-12-16T00:31:51;96036.91;;;-0.83;100.00
38912;BME280;28444;48.056;14.408;2022-12-16T00:34:19;96043.47;;;-0.70;100.00
38912;BME280;28444;48.056;14.408;2022-12-16T00:36:45;96040.38;;;-0.75;100.00
38912;BME280;28444;48.056;14.408;2022-12-16T00:39:12;96031.78;;;-0.94;100.00
38912;BME280;28444;48.056;14.408;2022-12-16T00:41:39;96042.63;;;-1.00;100.00
38912;BME280;28444;48.056;14.408;2022-12-16T00:44:05;96045.28;;;-0.86;100.00
38912;BME280;28444;48.056;14.408;2022-12-16T00:46:32;96052.28;;;-0.83;100.00
38912;BME280;28444;48.056;14.408;2022-12-16T00:48:58;96060.81;;;-0.71;100.00
38912;BME280;28444;48.056;14.408;2022-12-16T00:51:25;96068.03;;;-0.66;100.00
38912;BME280;28444;48.056;14.408;2022-12-16T00:53:52;96074.88;;;-0.79;100.00
38912;BME280;28444;48.056;14.408;2022-12-16T00:56:19;96077.50;;;-0.86;100.00
38912;BME280;28444;48.056;14.408;2022-12-16T00:58:46;96084.81;;;-0.87;100.00
38912;BME280;28444;48.056;14.408;2022-12-16T01:01:13;96084.63;;;-0.89;100.00
38912;BME280;28444;48.056;14.408;2022-12-16T01:03:40;96087.91;;;-0.83;100.00
38912;BME280;28444;48.056;14.408;2022-12-16T01:06:15;96093.97;;;-0.69;100.00
38912;BME280;28444;48.056;14.408;2022-12-16T01:08:42;96077.97;;;-0.75;100.00
38912;BME280;28444;48.056;14.408;2022-12-16T01:11:15;96078.28;;;-0.78;100.00
38912;BME280;28444;48.056;14.408;2022-12-16T01:13:42;96084.28;;;-0.85;100.00
38912;BME280;28444;48.056;14.408;2022-12-16T01:16:09;96080.03;;;-0.81;100.00
38912;BME280;28444;48.056;14.408;2022-12-16T01:18:36;96068.81;;;-0.92;100.00
38912;BME280;28444;48.056;14.408;2022-12-16T01:21:06;96059.66;;;-0.97;100.00
38912;BME280;28444;48.056;14.408;2022-12-16T01:23:33;96060.97;;;-0.90;100.00
38912;BME280;28444;48.056;14.408;2022-12-16T01:26:01;96065.25;;;-0.74;100.00
38912;BME280;28444;48.056;14.408;2022-12-16T01:28:28;96050.50;;;-0.81;100.00
38912;BME280;28444;48.056;14.408;2022-12-16T01:30:59;96053.81;;;-0.75;100.00
38912;BME280;28444;48.056;14.408;2022-12-16T01:33:31;96059.19;;;-0.88;100.00
38912;BME280;28444;48.056;14.408;2022-12-16T01:36:05;96054.13;;;-0.78;100.00
38912;BME280;28444;48.056;14.408;2022-12-16T01:38:32;96042.06;;;-0.85;100.00
38912;BME280;28444;48.056;14.408;2022-12-16T01:40:59;96044.31;;;-0.76;100.00
38912;BME280;28444;48.056;14.408;2022-12-16T01:43:30;96039.66;;;-0.75;100.00
38912;BME280;28444;48.056;14.408;2022-12-16T01:46:33;96053.09;;;-0.75;100.00
38912;BME280;28444;48.056;14.408;2022-12-16T01:49:03;96052.22;;;-0.70;100.00
38912;BME280;28444;48.056;14.408;2022-12-16T01:51:39;96057.19;;;-0.74;100.00
38912;BME280;28444;48.056;14.408;2022-12-16T01:54:25;96065.59;;;-0.78;100.00
38912;BME280;28444;48.056;14.408;2022-12-16T01:56:59;96076.03;;;-0.87;100.00
38912;BME280;28444;48.056;14.408;2022-12-16T01:59:28;96071.47;;;-0.79;100.00
38912;BME280;28444;48.056;14.408;2022-12-16T02:01:56;96066.13;;;-0.79;100.00
38912;BME280;28444;48.056;14.408;2022-12-16T02:04:23;96071.28;;;-0.81;100.00
38912;BME280;28444;48.056;14.408;2022-12-16T02:06:50;96070.94;;;-0.78;100.00
38912;BME280;28444;48.056;14.408;2022-12-16T02:09:17;96065.66;;;-0.70;100.00
38912;BME280;28444;48.056;14.408;2022-12-16T02:15:16;96048.97;;;-0.76;100.00
38912;BME280;28444;48.056;14.408;2022-12-16T02:18:10;96050.41;;;-0.75;100.00
38912;BME280;28444;48.056;14.408;2022-12-16T02:24:49;96059.06;;;-0.69;100.00
38912;BME280;28444;48.056;14.408;2022-12-16T02:30:44;96083.56;;;-0.73;100.00
38912;BME280;28444;48.056;14.408;2022-12-16T02:33:52;96078.69;;;-0.74;100.00
38912;BME280;28444;48.056;14.408;2022-12-16T02:39:54;96039.69;;;-0.88;100.00
38912;BME280;28444;48.056;14.408;2022-12-16T02:42:31;96051.75;;;-0.82;100.00
38912;BME280;28444;48.056;14.408;2022-12-16T02:45:14;96074.16;;;-0.79;100.00
38912;BME280;28444;48.056;14.408;2022-12-16T02:47:43;96080.66;;;-0.75;100.00
38912;BME280;28444;48.056;14.408;2022-12-16T02:50:32;96084.91;;;-0.79;100.00
38912;BME280;28444;48.056;14.408;2022-12-16T02:53:14;96087.06;;;-0.78;100.00
38912;BME280;28444;48.056;14.408;2022-12-16T02:59:14;96104.56;;;-0.63;100.00
38912;BME280;28444;48.056;14.408;2022-12-16T03:01:57;96112.00;;;-0.56;100.00
38912;BME280;28444;48.056;14.408;2022-12-16T03:04:36;96112.03;;;-0.69;100.00
38912;BME280;28444;48.056;14.408;2022-12-16T03:07:06;96110.59;;;-0.84;100.00
38912;BME280;28444;48.056;14.408;2022-12-16T03:09:37;96120.53;;;-0.79;100.00
38912;BME280;28444;48.056;14.408;2022-12-16T03:12:09;96122.69;;;-0.77;100.00
38912;BME280;28444;48.056;14.408;2022-12-16T03:14:38;96128.88;;;-0.69;100.00
38912;BME280;28444;48.056;14.408;2022-12-16T03:17:07;96126.28;;;-0.75;100.00
38912;BME280;28444;48.056;14.408;2022-12-16T03:19:36;96120.22;;;-0.75;100.00
38912;BME280;28444;48.056;14.408;2022-12-16T03:22:17;96122.50;;;-0.79;100.00
38912;BME280;28444;48.056;14.408;2022-12-16T03:24:45;96114.84;;;-0.75;100.00
38912;BME280;28444;48.056;14.408;2022-12-16T03:27:40;96110.41;;;-0.73;100.00
38912;BME280;28444;48.056;14.408;2022-12-16T03:30:16;96114.19;;;-0.68;100.00
38912;BME280;28444;48.056;14.408;2022-12-16T03:32:58;96112.44;;;-0.65;100.00
38912;BME280;28444;48.056;14.408;2022-12-16T03:35:36;96106.00;;;-0.62;100.00
38912;BME280;28444;48.056;14.408;2022-12-16T03:38:06;96104.34;;;-0.52;100.00
38912;BME280;28444;48.056;14.408;2022-12-16T03:40:37;96098.72;;;-0.41;100.00
38912;BME280;28444;48.056;14.408;2022-12-16T03:43:04;96102.38;;;-0.31;100.00
38912;BME280;28444;48.056;14.408;2022-12-16T03:45:37;96107.38;;;-0.35;100.00
38912;BME280;28444;48.056;14.408;2022-12-16T03:48:07;96106.09;;;-0.55;100.00
38912;BME280;28444;48.056;14.408;2022-12-16T03:50:34;96130.47;;;-0.53;100.00
38912;BME280;28444;48.056;14.408;2022-12-16T03:53:02;96123.59;;;-0.61;100.00
38912;BME280;28444;48.056;14.408;2022-12-16T03:55:29;96113.63;;;-0.53;100.00
38912;BME280;28444;48.056;14.408;2022-12-16T03:57:55;96108.34;;;-0.45;100.00
38912;BME280;28444;48.056;14.408;2022-12-16T04:00:23;96116.00;;;-0.50;100.00
38912;BME280;28444;48.056;14.408;2022-12-16T04:02:51;96109.38;;;-0.49;100.00
38912;BME280;28444;48.056;14.408;2022-12-16T04:05:18;96116.28;;;-0.40;100.00
38912;BME280;28444;48.056;14.408;2022-12-16T04:07:45;96111.31;;;-0.36;100.00
38912;BME280;28444;48.056;14.408;2022-12-16T04:10:11;96114.38;;;-0.32;100.00
38912;BME280;28444;48.056;14.408;2022-12-16T04:12:38;96113.91;;;-0.22;100.00
38912;BME280;28444;48.056;14.408;2022-12-16T04:15:23;96123.63;;;-0.19;100.00
38912;BME280;28444;48.056;14.408;2022-12-16T04:18:14;96131.69;;;-0.19;100.00
38912;BME280;28444;48.056;14.408;2022-12-16T04:21:01;96139.44;;;-0.16;100.00
38912;BME280;28444;48.056;14.408;2022-12-16T04:23:55;96143.75;;;-0.13;100.00
38912;BME280;28444;48.056;14.408;2022-12-16T04:26:40;96151.72;;;-0.07;99.75
38912;BME280;28444;48.056;14.408;2022-12-16T04:29:26;96164.41;;;-0.08;99.98
38912;BME280;28444;48.056;14.408;2022-12-16T04:31:53;96167.09;;;-0.08;99.95
38912;BME280;28444;48.056;14.408;2022-12-16T04:34:20;96167.69;;;-0.02;99.27
38912;BME280;28444;48.056;14.408;2022-12-16T04:36:59;96164.81;;;-0.04;99.36
38912;BME280;28444;48.056;14.408;2022-12-16T04:39:45;96177.84;;;-0.08;99.35
38912;BME280;28444;48.056;14.408;2022-12-16T04:42:31;96184.69;;;-0.07;99.32
38912;BME280;28444;48.056;14.408;2022-12-16T04:45:17;96197.97;;;-0.01;100.00
38912;BME280;28444;48.056;14.408;2022-12-16T04:48:02;96198.50;;;-0.03;99.85
38912;BME280;28444;48.056;14.408;2022-12-16T04:50:48;96214.09;;;-0.01;100.00
38912;BME280;28444;48.056;14.408;2022-12-16T04:53:33;96216.28;;;0.01;99.35
38912;BME280;28444;48.056;14.408;2022-12-16T04:56:18;96217.84;;;-0.04;99.79
38912;BME280;28444;48.056;14.408;2022-12-16T04:59:04;96214.63;;;-0.03;99.43
38912;BME280;28444;48.056;14.408;2022-12-16T05:01:49;96213.59;;;0.01;99.12
38912;BME280;28444;48.056;14.408;2022-12-16T05:04:35;96229.19;;;0.02;99.39
38912;BME280;28444;48.056;14.408;2022-12-16T05:07:20;96213.22;;;-0.04;100.00
38912;BME280;28444;48.056;14.408;2022-12-16T05:10:06;96226.31;;;0.00;100.00
38912;BME280;28444;48.056;14.408;2022-12-16T05:12:54;96229.00;;;0.00;100.00
38912;BME280;28444;48.056;14.408;2022-12-16T05:15:39;96224.69;;;-0.03;100.00
38912;BME280;28444;48.056;14.408;2022-12-16T05:18:25;96237.25;;;0.02;100.00
38912;BME280;28444;48.056;14.408;2022-12-16T05:21:10;96231.16;;;0.02;100.00
38912;BME280;28444;48.056;14.408;2022-12-16T05:23:55;96230.13;;;0.05;100.00
38912;BME280;28444;48.056;14.408;2022-12-16T05:26:40;96232.09;;;0.04;99.83
38912;BME280;28444;48.056;14.408;2022-12-16T05:29:25;96241.59;;;0.05;100.00
38912;BME280;28444;48.056;14.408;2022-12-16T05:32:11;96242.53;;;0.08;100.00
38912;BME280;28444;48.056;14.408;2022-12-16T05:34:56;96242.09;;;0.04;100.00
38912;BME280;28444;48.056;14.408;2022-12-16T05:37:41;96239.03;;;-0.01;100.00
38912;BME280;28444;48.056;14.408;2022-12-16T05:40:26;96247.41;;;-0.04;100.00
38912;BME280;28444;48.056;14.408;2022-12-16T05:43:11;96250.94;;;-0.09;100.00
38912;BME280;28444;48.056;14.408;2022-12-16T05:45:57;96245.97;;;-0.05;100.00
38912;BME280;28444;48.056;14.408;2022-12-16T05:48:42;96255.47;;;-0.04;100.00
38912;BME280;28444;48.056;14.408;2022-12-16T05:51:28;96263.84;;;-0.08;100.00
38912;BME280;28444;48.056;14.408;2022-12-16T05:54:13;96253.84;;;-0.07;100.00
38912;BME280;28444;48.056;14.408;2022-12-16T05:56:58;96266.97;;;-0.04;100.00
38912;BME280;28444;48.056;14.408;2022-12-16T05:59:44;96269.97;;;-0.07;100.00
38912;BME280;28444;48.056;14.408;2022-12-16T06:02:29;96279.97;;;-0.08;100.00
38912;BME280;28444;48.056;14.408;2022-12-16T06:05:15;96275.34;;;-0.07;100.00
38912;BME280;28444;48.056;14.408;2022-12-16T06:08:00;96278.63;;;-0.01;100.00
38912;BME280;28444;48.056;14.408;2022-12-16T06:10:45;96277.28;;;-0.08;100.00
38912;BME280;28444;48.056;14.408;2022-12-16T06:13:30;96279.25;;;-0.08;100.00
38912;BME280;28444;48.056;14.408;2022-12-16T06:16:16;96293.19;;;0.04;100.00
38912;BME280;28444;48.056;14.408;2022-12-16T06:19:01;96306.44;;;-0.12;100.00
38912;BME280;28444;48.056;14.408;2022-12-16T06:21:47;96308.56;;;-0.18;100.00
38912;BME280;28444;48.056;14.408;2022-12-16T06:24:32;96314.34;;;-0.14;100.00
38912;BME280;28444;48.056;14.408;2022-12-16T06:27:18;96325.78;;;-0.13;100.00
38912;BME280;28444;48.056;14.408;2022-12-16T06:30:03;96339.97;;;-0.13;100.00
38912;BME280;28444;48.056;14.408;2022-12-16T06:32:49;96333.75;;;-0.08;100.00
38912;BME280;28444;48.056;14.408;2022-12-16T06:35:34;96342.13;;;-0.11;100.00
38912;BME280;28444;48.056;14.408;2022-12-16T06:38:20;96339.44;;;-0.11;100.00
38912;BME280;28444;48.056;14.408;2022-12-16T06:41:04;96343.28;;;-0.20;100.00
38912;BME280;28444;48.056;14.408;2022-12-16T06:43:49;96349.59;;;-0.17;100.00
38912;BME280;28444;48.056;14.408;2022-12-16T06:46:42;96351.34;;;-0.07;100.00
38912;BME280;28444;48.056;14.408;2022-12-16T06:49:27;96356.00;;;-0.20;100.00
38912;BME280;28444;48.056;14.408;2022-12-16T06:52:12;96369.22;;;-0.09;100.00
38912;BME280;28444;48.056;14.408;2022-12-16T06:54:58;96379.75;;;-0.11;100.00
38912;BME280;28444;48.056;14.408;2022-12-16T06:57:43;96397.75;;;-0.06;100.00
38912;BME280;28444;48.056;14.408;2022-12-16T07:00:35;96400.53;;;0.02;100.00
38912;BME280;28444;48.056;14.408;2022-12-16T07:03:20;96409.22;;;-0.06;100.00
38912;BME280;28444;48.056;14.408;2022-12-16T07:06:06;96411.28;;;-0.12;100.00
38912;BME280;28444;48.056;14.408;2022-12-16T07:08:51;96415.31;;;-0.18;100.00
38912;BME280;28444;48.056;14.408;2022-12-16T07:11:36;96418.84;;;-0.10;100.00
38912;BME280;28444;48.056;14.408;2022-12-16T07:14:21;96417.38;;;-0.11;100.00
38912;BME280;28444;48.056;14.408;2022-12-16T07:17:06;96419.97;;;-0.06;100.00
38912;BME280;28444;48.056;14.408;2022-12-16T07:19:51;96423.28;;;0.01;100.00
38912;BME280;28444;48.056;14.408;2022-12-16T07:22:41;96432.88;;;-0.04;100.00
38912;BME280;28444;48.056;14.408;2022-12-16T07:25:37;96442.41;;;-0.03;100.00
38912;BME280;28444;48.056;14.408;2022-12-16T07:28:22;96452.53;;;0.04;100.00
38912;BME280;28444;48.056;14.408;2022-12-16T07:31:08;96455.44;;;0.06;100.00
38912;BME280;28444;48.056;14.408;2022-12-16T07:34:01;96471.88;;;0.03;100.00
38912;BME280;28444;48.056;14.408;2022-12-16T07:36:45;96466.41;;;0.08;100.00
38912;BME280;28444;48.056;14.408;2022-12-16T07:39:31;96467.22;;;0.03;100.00
38912;BME280;28444;48.056;14.408;2022-12-16T07:42:21;96475.50;;;0.05;100.00
38912;BME280;28444;48.056;14.408;2022-12-16T07:45:07;96484.50;;;0.08;100.00
38912;BME280;28444;48.056;14.408;2022-12-16T07:47:53;96491.63;;;0.05;100.00
38912;BME280;28444;48.056;14.408;2022-12-16T07:50:38;96486.66;;;0.09;100.00
38912;BME280;28444;48.056;14.408;2022-12-16T07:53:23;96488.63;;;0.09;100.00
38912;BME280;28444;48.056;14.408;2022-12-16T07:56:09;96502.19;;;0.16;100.00
38912;BME280;28444;48.056;14.408;2022-12-16T07:58:54;96504.34;;;0.18;100.00
38912;BME280;28444;48.056;14.408;2022-12-16T08:01:39;96510.47;;;0.18;100.00
38912;BME280;28444;48.056;14.408;2022-12-16T08:04:25;96513.84;;;0.32;100.00
38912;BME280;28444;48.056;14.408;2022-12-16T08:07:10;96525.34;;;0.19;99.55
38912;BME280;28444;48.056;14.408;2022-12-16T08:09:55;96519.53;;;0.29;100.00
38912;BME280;28444;48.056;14.408;2022-12-16T08:12:40;96522.66;;;0.19;99.79
38912;BME280;28444;48.056;14.408;2022-12-16T08:15:25;96529.09;;;0.30;99.59
38912;BME280;28444;48.056;14.408;2022-12-16T08:18:10;96535.91;;;0.31;99.77
38912;BME280;28444;48.056;14.408;2022-12-16T08:20:55;96535.81;;;0.23;100.00
38912;BME280;28444;48.056;14.408;2022-12-16T08:23:41;96543.88;;;0.23;100.00
38912;BME280;28444;48.056;14.408;2022-12-16T08:26:26;96542.22;;;0.20;100.00
38912;BME280;28444;48.056;14.408;2022-12-16T08:29:11;96543.88;;;0.23;100.00
38912;BME280;28444;48.056;14.408;2022-12-16T08:32:13;96543.34;;;0.24;100.00
38912;BME280;28444;48.056;14.408;2022-12-16T08:35:01;96548.94;;;0.27;100.00
38912;BME280;28444;48.056;14.408;2022-12-16T08:37:47;96555.88;;;0.22;100.00
38912;BME280;28444;48.056;14.408;2022-12-16T08:40:40;96573.84;;;0.14;100.00
38912;BME280;28444;48.056;14.408;2022-12-16T08:43:29;96570.34;;;0.19;100.00
38912;BME280;28444;48.056;14.408;2022-12-16T08:46:16;96576.94;;;0.18;100.00
38912;BME280;28444;48.056;14.408;2022-12-16T08:49:04;96589.59;;;0.23;100.00
38912;BME280;28444;48.056;14.408;2022-12-16T08:51:51;96581.00;;;0.24;100.00
38912;BME280;28444;48.056;14.408;2022-12-16T08:54:36;96591.03;;;0.24;100.00
38912;BME280;28444;48.056;14.408;2022-12-16T08:57:22;96597.03;;;0.30;100.00
38912;BME280;28444;48.056;14.408;2022-12-16T09:00:08;96588.97;;;0.43;99.59
38912;BME280;28444;48.056;14.408;2022-12-16T09:02:55;96590.84;;;0.48;99.53
38912;BME280;28444;48.056;14.408;2022-12-16T09:05:40;96599.25;;;0.58;99.54
38912;BME280;28444;48.056;14.408;2022-12-16T09:08:26;96600.78;;;0.54;99.42
38912;BME280;28444;48.056;14.408;2022-12-16T09:11:11;96605.84;;;0.57;98.96
38912;BME280;28444;48.056;14.408;2022-12-16T09:13:56;96606.47;;;0.63;99.15
38912;BME280;28444;48.056;14.408;2022-12-16T09:16:40;96613.53;;;0.66;98.58
38912;BME280;28444;48.056;14.408;2022-12-16T09:19:26;96609.59;;;0.67;98.25
38912;BME280;28444;48.056;14.408;2022-12-16T09:22:11;96604.59;;;0.71;97.70
38912;BME280;28444;48.056;14.408;2022-12-16T09:24:56;96616.81;;;0.72;97.80
38912;BME280;28444;48.056;14.408;2022-12-16T09:27:42;96615.19;;;0.69;97.63
38912;BME280;28444;48.056;14.408;2022-12-16T09:30:27;96616.09;;;0.85;97.53
38912;BME280;28444;48.056;14.408;2022-12-16T09:33:12;96620.97;;;0.74;97.48
38912;BME280;28444;48.056;14.408;2022-12-16T09:35:58;96621.91;;;0.63;98.08
38912;BME280;28444;48.056;14.408;2022-12-16T09:38:43;96625.00;;;0.67;97.64
38912;BME280;28444;48.056;14.408;2022-12-16T09:42:04;96647.78;;;0.66;98.07
38912;BME280;28444;48.056;14.408;2022-12-16T09:45:18;96644.44;;;0.46;98.77
38912;BME280;28444;48.056;14.408;2022-12-16T09:48:36;96640.59;;;0.42;98.76
38912;BME280;28444;48.056;14.408;2022-12-16T09:51:26;96649.94;;;0.54;99.23
38912;BME280;28444;48.056;14.408;2022-12-16T09:54:15;96646.81;;;0.50;98.48
38912;BME280;28444;48.056;14.408;2022-12-16T09:57:02;96655.41;;;0.48;97.45
38912;BME280;28444;48.056;14.408;2022-12-16T09:59:52;96655.00;;;0.44;96.87
38912;BME280;28444;48.056;14.408;2022-12-16T10:02:39;96658.31;;;0.51;97.84
38912;BME280;28444;48.056;14.408;2022-12-16T10:08:42;96656.56;;;0.53;97.11
38912;BME280;28444;48.056;14.408;2022-12-16T10:12:37;96663.19;;;0.52;97.52
38912;BME280;28444;48.056;14.408;2022-12-16T10:18:52;96673.03;;;0.76;96.33
38912;BME280;28444;48.056;14.408;2022-12-16T10:22:14;96682.34;;;0.75;97.92
38912;BME280;28444;48.056;14.408;2022-12-16T10:25:48;96695.00;;;0.80;96.78
38912;BME280;28444;48.056;14.408;2022-12-16T10:28:45;96689.94;;;0.77;96.99
38912;BME280;28444;48.056;14.408;2022-12-16T10:31:31;96697.59;;;0.86;96.26
38912;BME280;28444;48.056;14.408;2022-12-16T10:34:25;96701.31;;;0.83;95.19
38912;BME280;28444;48.056;14.408;2022-12-16T10:37:17;96700.38;;;0.80;96.21
38912;BME280;28444;48.056;14.408;2022-12-16T10:40:05;96699.22;;;0.76;96.48
38912;BME280;28444;48.056;14.408;2022-12-16T10:43:03;96704.00;;;0.69;95.79
38912;BME280;28444;48.056;14.408;2022-12-16T10:45:51;96699.13;;;0.68;95.45
38912;BME280;28444;48.056;14.408;2022-12-16T10:48:42;96688.88;;;0.66;96.09
38912;BME280;28444;48.056;14.408;2022-12-16T10:51:28;96684.94;;;0.67;96.99
38912;BME280;28444;48.056;14.408;2022-12-16T10:54:41;96685.16;;;0.69;96.14
38912;BME280;28444;48.056;14.408;2022-12-16T11:01:19;96690.84;;;0.79;96.08
38912;BME280;28444;48.056;14.408;2022-12-16T11:07:48;96695.00;;;0.80;97.22
38912;BME280;28444;48.056;14.408;2022-12-16T11:10:36;96684.09;;;0.72;97.28
38912;BME280;28444;48.056;14.408;2022-12-16T11:13:28;96674.41;;;0.69;96.72
38912;BME280;28444;48.056;14.408;2022-12-16T11:16:23;96676.88;;;0.67;96.47
38912;BME280;28444;48.056;14.408;2022-12-16T11:19:25;96681.72;;;0.69;97.04
38912;BME280;28444;48.056;14.408;2022-12-16T11:22:21;96679.88;;;0.77;97.38
38912;BME280;28444;48.056;14.408;2022-12-16T11:25:18;96678.09;;;0.80;97.47
38912;BME280;28444;48.056;14.408;2022-12-16T11:28:14;96689.19;;;0.89;96.83
38912;BME280;28444;48.056;14.408;2022-12-16T11:31:04;96685.16;;;0.96;97.04
38912;BME280;28444;48.056;14.408;2022-12-16T11:33:52;96679.56;;;1.07;96.38
38912;BME280;28444;48.056;14.408;2022-12-16T11:36:39;96689.50;;;1.12;96.36
38912;BME280;28444;48.056;14.408;2022-12-16T11:39:26;96690.34;;;1.20;95.19
38912;BME280;28444;48.056;14.408;2022-12-16T11:42:21;96699.66;;;1.33;94.64
38912;BME280;28444;48.056;14.408;2022-12-16T11:45:13;96696.72;;;1.44;93.69
38912;BME280;28444;48.056;14.408;2022-12-16T11:48:06;96699.44;;;1.44;92.97
38912;BME280;28444;48.056;14.408;2022-12-16T11:50:56;96707.91;;;1.48;93.37
38912;BME280;28444;48.056;14.408;2022-12-16T11:53:57;96708.31;;;1.65;92.01
38912;BME280;28444;48.056;14.408;2022-12-16T11:56:44;96707.41;;;1.50;91.78
38912;BME280;28444;48.056;14.408;2022-12-16T12:00:05;96715.81;;;1.33;93.54
38912;BME280;28444;48.056;14.408;2022-12-16T12:03:09;96718.72;;;1.35;93.15
38912;BME280;28444;48.056;14.408;2022-12-16T12:06:17;96716.22;;;1.37;93.68
38912;BME280;28444;48.056;14.408;2022-12-16T12:09:22;96713.84;;;1.47;94.03
38912;BME280;28444;48.056;14.408;2022-12-16T12:12:42;96713.63;;;1.44;93.18
38912;BME280;28444;48.056;14.408;2022-12-16T12:22:34;96720.28;;;1.17;95.69
38912;BME280;28444;48.056;14.408;2022-12-16T12:25:38;96723.59;;;1.23;96.09
38912;BME280;28444;48.056;14.408;2022-12-16T12:28:34;96718.31;;;1.17;96.22
38912;BME280;28444;48.056;14.408;2022-12-16T12:32:02;96720.16;;;1.23;95.83
38912;BME280;28444;48.056;14.408;2022-12-16T12:35:00;96737.16;;;1.17;96.03
38912;BME280;28444;48.056;14.408;2022-12-16T12:38:08;96739.03;;;1.23;96.42
38912;BME280;28444;48.056;14.408;2022-12-16T12:41:16;96737.38;;;1.19;95.73
38912;BME280;28444;48.056;14.408;2022-12-16T12:44:50;96744.63;;;1.11;96.42
38912;BME280;28444;48.056;14.408;2022-12-16T12:47:15;96757.88;;;1.09;96.81
38912;BME280;28444;48.056;14.408;2022-12-16T12:50:21;96756.22;;;1.19;96.28
38912;BME280;28444;48.056;14.408;2022-12-16T12:53:39;96759.97;;;1.16;96.00
38912;BME280;28444;48.056;14.408;2022-12-16T12:59:25;96757.97;;;1.30;96.23
38912;BME280;28444;48.056;14.408;2022-12-16T13:02:19;96771.06;;;1.39;95.68
38912;BME280;28444;48.056;14.408;2022-12-16T13:05:10;96781.00;;;1.44;96.05
38912;BME280;28444;48.056;14.408;2022-12-16T13:15:36;96784.94;;;1.43;94.71
38912;BME280;28444;48.056;14.408;2022-12-16T13:18:26;96781.91;;;1.34;96.10
38912;BME280;28444;48.056;14.408;2022-12-16T13:24:36;96790.44;;;1.25;96.37
38912;BME280;28444;48.056;14.408;2022-12-16T13:27:21;96789.41;;;1.28;97.02
38912;BME280;28444;48.056;14.408;2022-12-16T13:30:19;96802.66;;;1.26;96.41
38912;BME280;28444;48.056;14.408;2022-12-16T13:33:20;96797.47;;;1.28;97.17
38912;BME280;28444;48.056;14.408;2022-12-16T13:36:07;96801.28;;;1.19;97.65
38912;BME280;28444;48.056;14.408;2022-12-16T13:38:55;96805.00;;;1.16;97.86
38912;BME280;28444;48.056;14.408;2022-12-16T13:41:46;96805.53;;;1.14;98.66
38912;BME280;28444;48.056;14.408;2022-12-16T13:44:54;96811.84;;;1.04;99.12
38912;BME280;28444;48.056;14.408;2022-12-16T13:48:00;96813.09;;;1.03;98.75
38912;BME280;28444;48.056;14.408;2022-12-16T13:50:49;96814.22;;;1.07;99.06
38912;BME280;28444;48.056;14.408;2022-12-16T13:53:50;96816.59;;;0.98;98.58
38912;BME280;28444;48.056;14.408;2022-12-16T13:56:45;96823.13;;;1.02;98.65
38912;BME280;28444;48.056;14.408;2022-12-16T13:59:32;96818.59;;;1.10;98.36
38912;BME280;28444;48.056;14.408;2022-12-16T14:02:38;96832.84;;;0.92;98.42
38912;BME280;28444;48.056;14.408;2022-12-16T14:05:30;96835.00;;;0.80;99.88
38912;BME280;28444;48.056;14.408;2022-12-16T14:08:22;96845.53;;;0.78;99.74
38912;BME280;28444;48.056;14.408;2022-12-16T14:11:21;96840.56;;;0.82;100.00
38912;BME280;28444;48.056;14.408;2022-12-16T14:14:22;96848.75;;;0.77;100.00
38912;BME280;28444;48.056;14.408;2022-12-16T14:17:20;96847.91;;;0.82;100.00
38912;BME280;28444;48.056;14.408;2022-12-16T14:20:17;96852.94;;;0.91;99.57
38912;BME280;28444;48.056;14.408;2022-12-16T14:23:21;96856.66;;;0.88;99.63
38912;BME280;28444;48.056;14.408;2022-12-16T14:26:26;96858.09;;;0.89;99.76
38912;BME280;28444;48.056;14.408;2022-12-16T14:29:26;96865.53;;;0.83;100.00
38912;BME280;28444;48.056;14.408;2022-12-16T14:32:31;96871.56;;;0.89;100.00
38912;BME280;28444;48.056;14.408;2022-12-16T14:35:20;96874.31;;;0.83;99.65
38912;BME280;28444;48.056;14.408;2022-12-16T14:38:33;96885.91;;;0.78;100.00
38912;BME280;28444;48.056;14.408;2022-12-16T14:41:23;96890.34;;;0.76;100.00
38912;BME280;28444;48.056;14.408;2022-12-16T14:44:20;96882.69;;;0.80;100.00
38912;BME280;28444;48.056;14.408;2022-12-16T14:47:17;96906.78;;;0.72;100.00
38912;BME280;28444;48.056;14.408;2022-12-16T14:50:17;96892.91;;;0.68;100.00
38912;BME280;28444;48.056;14.408;2022-12-16T14:53:16;96904.34;;;0.55;100.00
38912;BME280;28444;48.056;14.408;2022-12-16T14:56:19;96911.16;;;0.56;100.00
38912;BME280;28444;48.056;14.408;2022-12-16T14:59:15;96905.72;;;0.62;100.00
38912;BME280;28444;48.056;14.408;2022-12-16T15:02:29;96915.59;;;0.54;100.00
38912;BME280;28444;48.056;14.408;2022-12-16T15:05:17;96920.19;;;0.59;100.00
38912;BME280;28444;48.056;14.408;2022-12-16T15:08:04;96922.16;;;0.58;100.00
38912;BME280;28444;48.056;14.408;2022-12-16T15:10:49;96925.78;;;0.61;100.00
38912;BME280;28444;48.056;14.408;2022-12-16T15:13:35;96930.97;;;0.59;100.00